createdAt,value
2018-09-05T00:00:12.192Z,47.00
2018-09-05T00:01:12.171Z,50.40
2018-09-05T00:02:12.136Z,51.90
2018-09-05T00:03:12.108Z,52.40
2018-09-05T00:04:12.082Z,52.00
2018-09-05T00:05:12.055Z,50.40
2018-09-05T00:06:12.035Z,49.60
2018-09-05T00:07:12.000Z,47.30
2018-09-05T00:08:11.974Z,47.10
2018-09-05T00:09:11.953Z,48.60
2018-09-05T00:10:11.917Z,47.60
2018-09-05T00:11:11.899Z,47.50
2018-09-05T00:12:11.864Z,48.30
2018-09-05T00:13:11.835Z,49.20
2018-09-05T00:14:11.867Z,44.90
2018-09-05T00:15:11.782Z,47.90
2018-09-05T00:16:11.763Z,51.90
2018-09-05T00:17:11.728Z,47.00
2018-09-05T00:18:11.699Z,46.00
2018-09-05T00:19:11.672Z,43.80
2018-09-05T00:20:11.645Z,46.90
2018-09-05T00:21:11.626Z,47.90
2018-09-05T00:22:11.590Z,46.40
2018-09-05T00:23:11.563Z,45.60
2018-09-05T00:24:11.536Z,44.20
2018-09-05T00:25:11.509Z,43.20
2018-09-05T00:26:11.490Z,45.50
2018-09-05T00:27:11.454Z,44.80
2018-09-05T00:28:11.427Z,44.60
2018-09-05T00:29:11.402Z,43.50
2018-09-05T00:30:11.371Z,46.50
2018-09-05T00:31:11.351Z,45.50
2018-09-05T00:32:11.329Z,45.10
2018-09-05T00:33:11.289Z,47.00
2018-09-05T00:34:11.262Z,43.60
2018-09-05T00:35:11.234Z,43.70
2018-09-05T00:36:11.206Z,43.60
2018-09-05T00:37:11.185Z,41.70
2018-09-05T00:38:11.152Z,43.10
2018-09-05T00:39:11.125Z,42.40
2018-09-05T00:40:11.097Z,44.00
2018-09-05T00:41:11.081Z,42.00
2018-09-05T00:42:11.051Z,43.60
2018-09-05T00:43:11.014Z,42.40
2018-09-05T00:44:10.996Z,45.80
2018-09-05T00:45:10.960Z,45.70
2018-09-05T00:46:10.931Z,45.90
2018-09-05T00:47:10.913Z,46.70
2018-09-05T00:48:10.878Z,53.60
2018-09-05T00:49:10.851Z,47.20
2018-09-05T00:50:10.821Z,48.40
2018-09-05T00:51:10.795Z,49.30
2018-09-05T00:52:10.781Z,47.30
2018-09-05T00:53:10.741Z,48.40
2018-09-05T00:54:10.711Z,48.30
2018-09-05T00:55:10.684Z,45.70
2018-09-05T00:56:10.657Z,49.80
2018-09-05T00:57:10.636Z,52.80
2018-09-05T00:58:10.607Z,53.00
2018-09-05T00:59:10.574Z,48.70
2018-09-05T01:00:10.547Z,48.30
2018-09-05T01:01:10.518Z,49.80
2018-09-05T01:02:10.499Z,49.40
2018-09-05T01:03:10.463Z,47.40
2018-09-05T01:04:10.435Z,50.10
2018-09-05T01:05:10.409Z,50.90
2018-09-05T01:06:10.381Z,49.50
2018-09-05T01:07:10.361Z,49.30
2018-09-05T01:08:10.326Z,50.70
2018-09-05T01:09:10.297Z,50.10
2018-09-05T01:10:10.268Z,48.50
2018-09-05T01:11:10.244Z,46.20
2018-09-05T01:12:10.223Z,49.40
2018-09-05T01:13:10.186Z,48.50
2018-09-05T01:14:10.162Z,48.70
2018-09-05T01:15:10.131Z,46.60
2018-09-05T01:16:10.105Z,47.90
2018-09-05T01:17:10.085Z,47.30
2018-09-05T01:18:10.047Z,50.90
2018-09-05T01:19:10.020Z,45.00
2018-09-05T01:20:09.994Z,46.80
2018-09-05T01:21:09.965Z,45.50
2018-09-05T01:22:09.947Z,45.50
2018-09-05T01:23:09.910Z,45.80
2018-09-05T01:24:09.881Z,43.80
2018-09-05T01:25:09.854Z,42.80
2018-09-05T01:26:09.826Z,42.90
2018-09-05T01:27:09.806Z,42.70
2018-09-05T01:28:09.776Z,44.20
2018-09-05T01:29:09.745Z,44.70
2018-09-05T01:30:09.715Z,45.50
2018-09-05T01:31:09.687Z,43.40
2018-09-05T01:32:09.677Z,42.90
2018-09-05T01:33:09.629Z,43.30
2018-09-05T01:34:09.604Z,42.60
2018-09-05T01:35:09.576Z,41.50
2018-09-05T01:36:09.548Z,43.40
2018-09-05T01:37:09.527Z,43.00
2018-09-05T01:38:09.493Z,45.50
2018-09-05T01:39:09.468Z,43.20
2018-09-05T01:40:09.437Z,43.30
2018-09-05T01:41:09.409Z,41.70
2018-09-05T01:42:09.389Z,43.20
2018-09-05T01:43:09.354Z,44.20
2018-09-05T01:44:09.326Z,44.90
2018-09-05T01:45:09.296Z,41.70
2018-09-05T01:46:09.268Z,43.30
2018-09-05T01:47:09.254Z,42.10
2018-09-05T01:48:09.215Z,43.30
2018-09-05T01:49:09.185Z,43.50
2018-09-05T01:50:09.160Z,43.10
2018-09-05T01:51:09.129Z,41.10
2018-09-05T01:52:09.111Z,44.80
2018-09-05T01:53:09.076Z,43.20
2018-09-05T01:54:09.044Z,42.50
2018-09-05T01:55:09.018Z,42.60
2018-09-05T01:56:08.991Z,41.50
2018-09-05T01:57:08.983Z,40.50
2018-09-05T01:58:08.935Z,42.90
2018-09-05T01:59:08.909Z,39.60
2018-09-05T02:00:08.878Z,41.40
2018-09-05T02:01:08.850Z,40.20
2018-09-05T02:02:08.824Z,42.90
2018-09-05T02:03:08.802Z,43.90
2018-09-05T02:04:08.766Z,45.30
2018-09-05T02:05:08.737Z,46.20
2018-09-05T02:06:08.710Z,43.60
2018-09-05T02:07:08.684Z,40.80
2018-09-05T02:08:08.663Z,40.60
2018-09-05T02:09:08.625Z,40.70
2018-09-05T02:10:08.598Z,42.20
2018-09-05T02:11:08.570Z,39.80
2018-09-05T02:12:08.543Z,44.20
2018-09-05T02:13:08.521Z,43.70
2018-09-05T02:14:08.485Z,39.10
2018-09-05T02:15:08.457Z,39.70
2018-09-05T02:16:08.429Z,40.00
2018-09-05T02:17:08.400Z,38.50
2018-09-05T02:18:08.381Z,40.10
2018-09-05T02:19:08.356Z,42.10
2018-09-05T02:20:08.317Z,42.50
2018-09-05T02:21:08.291Z,44.60
2018-09-05T02:22:08.260Z,44.20
2018-09-05T02:23:08.244Z,42.60
2018-09-05T02:24:08.204Z,44.50
2018-09-05T02:25:08.176Z,42.40
2018-09-05T02:26:08.147Z,44.50
2018-09-05T02:27:08.119Z,44.30
2018-09-05T02:28:08.102Z,42.60
2018-09-05T02:29:08.061Z,41.80
2018-09-05T02:30:08.034Z,41.60
2018-09-05T02:31:08.006Z,43.20
2018-09-05T02:32:07.979Z,40.80
2018-09-05T02:33:07.956Z,42.70
2018-09-05T02:34:07.921Z,39.50
2018-09-05T02:35:07.896Z,39.30
2018-09-05T02:36:07.864Z,43.00
2018-09-05T02:37:07.835Z,41.30
2018-09-05T02:38:07.815Z,41.10
2018-09-05T02:39:07.782Z,43.40
2018-09-05T02:40:07.753Z,42.30
2018-09-05T02:41:07.728Z,41.80
2018-09-05T02:42:07.700Z,44.70
2018-09-05T02:43:07.675Z,45.20
2018-09-05T02:44:07.639Z,41.00
2018-09-05T02:45:07.609Z,42.80
2018-09-05T02:46:07.582Z,45.00
2018-09-05T02:47:07.556Z,44.30
2018-09-05T02:48:07.533Z,43.00
2018-09-05T02:49:07.507Z,47.70
2018-09-05T02:50:07.516Z,47.30
2018-09-05T02:51:07.446Z,47.20
2018-09-05T02:52:07.412Z,45.80
2018-09-05T02:53:07.389Z,47.10
2018-09-05T02:54:07.353Z,47.40
2018-09-05T02:55:07.328Z,48.50
2018-09-05T02:56:07.297Z,49.30
2018-09-05T02:57:07.268Z,46.70
2018-09-05T02:58:07.248Z,48.30
2018-09-05T02:59:07.212Z,44.90
2018-09-05T03:00:07.185Z,44.60
2018-09-05T03:01:07.155Z,48.10
2018-09-05T03:02:07.128Z,46.60
2018-09-05T03:03:07.105Z,47.40
2018-09-05T03:04:07.073Z,47.90
2018-09-05T03:05:07.041Z,47.80
2018-09-05T03:06:07.012Z,49.10
2018-09-05T03:07:06.994Z,54.80
2018-09-05T03:08:06.963Z,51.10
2018-09-05T03:09:06.930Z,49.90
2018-09-05T03:10:06.897Z,49.70
2018-09-05T03:11:06.871Z,47.60
2018-09-05T03:12:06.843Z,49.10
2018-09-05T03:13:06.820Z,49.90
2018-09-05T03:14:06.795Z,48.00
2018-09-05T03:15:06.757Z,46.20
2018-09-05T03:16:06.733Z,46.20
2018-09-05T03:17:06.699Z,44.70
2018-09-05T03:18:06.679Z,43.50
2018-09-05T03:19:06.642Z,43.90
2018-09-05T03:20:06.615Z,44.10
2018-09-05T03:21:06.586Z,48.90
2018-09-05T03:22:06.558Z,48.50
2018-09-05T03:23:06.537Z,51.00
2018-09-05T03:24:06.502Z,53.40
2018-09-05T03:25:06.471Z,55.20
2018-09-05T03:26:06.443Z,57.50
2018-09-05T03:27:06.413Z,55.70
2018-09-05T03:28:06.394Z,56.80
2018-09-05T03:29:06.356Z,56.00
2018-09-05T03:30:06.329Z,52.40
2018-09-05T03:31:06.305Z,52.40
2018-09-05T03:32:06.272Z,51.60
2018-09-05T03:33:06.305Z,51.80
2018-09-05T03:34:06.213Z,48.80
2018-09-05T03:35:06.185Z,47.80
2018-09-05T03:36:06.158Z,49.00
2018-09-05T03:37:06.127Z,49.60
2018-09-05T03:38:06.099Z,48.00
2018-09-05T03:39:06.078Z,49.40
2018-09-05T03:40:06.044Z,49.20
2018-09-05T03:41:06.019Z,52.00
2018-09-05T03:42:05.987Z,51.80
2018-09-05T03:43:05.959Z,48.50
2018-09-05T03:44:05.938Z,49.00
2018-09-05T03:45:05.897Z,53.30
2018-09-05T03:46:05.873Z,57.40
2018-09-05T03:47:05.840Z,55.20
2018-09-05T03:48:05.812Z,56.20
2018-09-05T03:49:05.791Z,53.30
2018-09-05T03:50:05.753Z,54.00
2018-09-05T03:51:05.727Z,53.60
2018-09-05T03:52:05.699Z,52.70
2018-09-05T03:53:05.668Z,49.90
2018-09-05T03:54:05.647Z,50.20
2018-09-05T03:55:05.610Z,51.90
2018-09-05T03:56:05.583Z,49.40
2018-09-05T03:57:05.555Z,50.90
2018-09-05T03:58:05.524Z,52.90
2018-09-05T03:59:05.504Z,52.20
2018-09-05T04:00:05.466Z,53.70
2018-09-05T04:01:05.440Z,55.10
2018-09-05T04:02:05.408Z,49.50
2018-09-05T04:03:05.380Z,53.90
2018-09-05T04:04:05.361Z,54.60
2018-09-05T04:05:05.399Z,49.00
2018-09-05T04:06:05.295Z,50.60
2018-09-05T04:07:05.265Z,51.00
2018-09-05T04:08:05.238Z,49.90
2018-09-05T04:09:05.216Z,50.60
2018-09-05T04:10:05.177Z,49.30
2018-09-05T04:11:05.149Z,48.20
2018-09-05T04:12:05.159Z,49.30
2018-09-05T04:13:05.093Z,50.60
2018-09-05T04:14:05.069Z,49.50
2018-09-05T04:15:05.034Z,56.60
2018-09-05T04:16:05.004Z,50.50
2018-09-05T04:17:04.976Z,48.50
2018-09-05T04:18:04.952Z,53.80
2018-09-05T04:19:04.926Z,52.00
2018-09-05T04:20:04.908Z,52.60
2018-09-05T04:21:04.859Z,49.70
2018-09-05T04:22:04.874Z,52.60
2018-09-05T04:23:04.803Z,47.40
2018-09-05T04:24:04.784Z,52.90
2018-09-05T04:25:04.745Z,50.90
2018-09-05T04:26:04.714Z,51.00
2018-09-05T04:27:04.687Z,50.10
2018-09-05T04:28:04.661Z,52.30
2018-09-05T04:29:04.636Z,50.90
2018-09-05T04:30:04.601Z,46.20
2018-09-05T04:31:04.570Z,47.60
2018-09-05T04:32:04.543Z,48.50
2018-09-05T04:33:04.514Z,50.40
2018-09-05T04:34:04.491Z,48.90
2018-09-05T04:35:04.451Z,50.70
2018-09-05T04:36:04.425Z,49.70
2018-09-05T04:37:04.395Z,49.20
2018-09-05T04:38:04.367Z,47.90
2018-09-05T04:39:04.354Z,46.90
2018-09-05T04:40:04.309Z,47.50
2018-09-05T04:41:04.280Z,51.60
2018-09-05T04:42:04.250Z,51.30
2018-09-05T04:43:04.224Z,48.70
2018-09-05T04:44:04.192Z,52.90
2018-09-05T04:45:04.239Z,57.00
2018-09-05T04:46:04.134Z,60.40
2018-09-05T04:47:04.105Z,54.30
2018-09-05T04:48:04.076Z,61.80
2018-09-05T04:49:04.047Z,59.10
2018-09-05T04:50:04.026Z,65.50
2018-09-05T04:51:03.990Z,59.80
2018-09-05T04:52:03.964Z,59.30
2018-09-05T04:53:03.934Z,52.30
2018-09-05T04:54:03.902Z,51.70
2018-09-05T04:55:03.881Z,49.80
2018-09-05T04:56:03.843Z,52.00
2018-09-05T04:57:03.814Z,51.90
2018-09-05T04:58:03.788Z,54.40
2018-09-05T04:59:03.757Z,50.30
2018-09-05T05:00:03.743Z,48.80
2018-09-05T05:01:03.700Z,48.00
2018-09-05T05:02:03.666Z,50.80
2018-09-05T05:03:03.638Z,51.00
2018-09-05T05:04:03.611Z,46.00
2018-09-05T05:05:03.595Z,49.70
2018-09-05T05:06:03.614Z,47.00
2018-09-05T05:07:03.527Z,47.20
2018-09-05T05:08:03.497Z,43.70
2018-09-05T05:09:03.465Z,43.60
2018-09-05T05:10:03.445Z,44.30
2018-09-05T05:11:03.417Z,45.70
2018-09-05T05:12:03.385Z,44.90
2018-09-05T05:13:03.354Z,51.60
2018-09-05T05:14:03.321Z,48.30
2018-09-05T05:15:03.301Z,47.00
2018-09-05T05:16:03.268Z,45.30
2018-09-05T05:17:03.233Z,44.60
2018-09-05T05:18:03.202Z,44.60
2018-09-05T05:19:03.201Z,44.80
2018-09-05T05:20:03.159Z,43.10
2018-09-05T05:21:03.118Z,44.80
2018-09-05T05:22:03.088Z,44.40
2018-09-05T05:23:03.066Z,46.20
2018-09-05T05:24:03.027Z,44.70
2018-09-05T05:25:03.005Z,46.10
2018-09-05T05:26:02.983Z,43.00
2018-09-05T05:27:02.949Z,41.90
2018-09-05T05:28:02.915Z,43.20
2018-09-05T05:29:02.894Z,43.30
2018-09-05T05:30:02.858Z,42.10
2018-09-05T05:31:02.839Z,41.80
2018-09-05T05:32:02.799Z,41.70
2018-09-05T05:33:02.770Z,40.90
2018-09-05T05:34:02.743Z,40.30
2018-09-05T05:35:02.714Z,39.70
2018-09-05T05:36:02.693Z,38.40
2018-09-05T05:37:02.655Z,39.40
2018-09-05T05:38:02.627Z,41.70
2018-09-05T05:39:02.598Z,42.20
2018-09-05T05:40:02.588Z,40.40
2018-09-05T05:41:02.549Z,38.40
2018-09-05T05:42:02.518Z,45.80
2018-09-05T05:43:02.483Z,47.00
2018-09-05T05:44:02.455Z,45.20
2018-09-05T05:45:02.425Z,48.00
2018-09-05T05:46:02.405Z,44.90
2018-09-05T05:47:02.369Z,45.90
2018-09-05T05:48:02.341Z,44.20
2018-09-05T05:49:02.316Z,44.20
2018-09-05T05:50:02.283Z,43.60
2018-09-05T05:51:02.262Z,43.20
2018-09-05T05:52:02.230Z,43.20
2018-09-05T05:53:02.197Z,43.20
2018-09-05T05:54:02.187Z,41.30
2018-09-05T05:55:02.173Z,42.50
2018-09-05T05:56:02.122Z,43.00
2018-09-05T05:57:02.098Z,41.90
2018-09-05T05:58:02.057Z,40.90
2018-09-05T05:59:02.025Z,41.70
2018-09-05T06:00:01.998Z,41.30
2018-09-05T06:01:02.076Z,42.30
2018-09-05T06:02:01.943Z,40.50
2018-09-05T06:03:01.914Z,39.80
2018-09-05T06:04:01.890Z,40.30
2018-09-05T06:05:01.855Z,40.30
2018-09-05T06:06:01.892Z,41.80
2018-09-05T06:07:01.800Z,40.10
2018-09-05T06:08:01.774Z,39.30
2018-09-05T06:09:01.749Z,38.60
2018-09-05T06:10:01.722Z,38.60
2018-09-05T06:11:01.695Z,38.40
2018-09-05T06:12:01.664Z,36.80
2018-09-05T06:13:01.635Z,36.00
2018-09-05T06:14:01.612Z,36.70
2018-09-05T06:15:01.578Z,34.40
2018-09-05T06:16:01.555Z,34.50
2018-09-05T06:17:01.519Z,31.10
2018-09-05T06:18:01.585Z,29.70
2018-09-05T06:19:01.468Z,28.00
2018-09-05T06:20:01.448Z,27.30
2018-09-05T06:21:01.425Z,26.10
2018-09-05T06:22:01.388Z,24.90
2018-09-05T06:23:01.353Z,24.40
2018-09-05T06:24:01.366Z,22.40
2018-09-05T06:25:01.302Z,23.00
2018-09-05T06:26:01.280Z,22.00
2018-09-05T06:27:01.244Z,21.70
2018-09-05T06:28:01.223Z,21.80
2018-09-05T06:29:01.188Z,21.40
2018-09-05T06:30:01.164Z,24.00
2018-09-05T06:31:01.242Z,24.10
2018-09-05T06:32:01.110Z,25.40
2018-09-05T06:33:01.080Z,25.60
2018-09-05T06:34:01.056Z,25.40
2018-09-05T06:35:01.027Z,26.70
2018-09-05T06:36:01.008Z,27.10
2018-09-05T06:37:00.972Z,28.00
2018-09-05T06:38:00.944Z,28.20
2018-09-05T06:39:00.970Z,29.10
2018-09-05T06:40:00.888Z,28.10
2018-09-05T06:41:00.872Z,27.10
2018-09-05T06:42:00.835Z,27.80
2018-09-05T06:43:00.807Z,28.90
2018-09-05T06:44:00.779Z,27.50
2018-09-05T06:45:00.817Z,27.80
2018-09-05T06:46:00.736Z,26.60
2018-09-05T06:47:00.697Z,27.90
2018-09-05T06:48:00.672Z,27.80
2018-09-05T06:49:00.643Z,27.20
2018-09-05T06:50:00.617Z,27.80
2018-09-05T06:51:00.606Z,27.10
2018-09-05T06:52:00.562Z,27.30
2018-09-05T06:53:00.534Z,27.90
2018-09-05T06:54:00.506Z,25.90
2018-09-05T06:55:00.485Z,23.70
2018-09-05T06:56:00.451Z,25.90
2018-09-05T06:57:00.435Z,25.90
2018-09-05T06:58:00.400Z,26.40
2018-09-05T06:59:00.373Z,26.10
2018-09-05T07:00:00.343Z,24.70
2018-09-05T07:01:00.317Z,25.80
2018-09-05T07:02:00.296Z,26.10
2018-09-05T07:03:00.262Z,25.20
2018-09-05T07:04:00.311Z,25.40
2018-09-05T07:05:00.208Z,25.20
2018-09-05T07:06:00.181Z,24.90
2018-09-05T07:07:00.204Z,23.80
2018-09-05T07:08:00.131Z,24.30
2018-09-05T07:09:00.098Z,23.90
2018-09-05T07:10:00.131Z,24.10
2018-09-05T07:11:00.044Z,24.20
2018-09-05T07:12:00.028Z,22.80
2018-09-05T07:12:59.993Z,23.40
2018-09-05T07:14:00.001Z,23.50
2018-09-05T07:14:59.936Z,21.50
2018-09-05T07:15:59.910Z,22.30
2018-09-05T07:16:59.891Z,22.60
2018-09-05T07:17:59.856Z,22.90
2018-09-05T07:18:59.833Z,22.60
2018-09-05T07:19:59.802Z,22.70
2018-09-05T07:21:05.682Z,22.90
2018-09-05T07:21:59.814Z,22.10
2018-09-05T07:22:59.723Z,21.90
2018-09-05T07:23:59.696Z,21.80
2018-09-05T07:24:59.715Z,21.90
2018-09-05T07:25:59.639Z,22.10
2018-09-05T07:26:59.623Z,21.20
2018-09-05T07:27:59.588Z,21.40
2018-09-05T07:28:59.560Z,21.00
2018-09-05T07:29:59.535Z,20.70
2018-09-05T07:30:59.560Z,21.30
2018-09-05T07:31:59.490Z,20.50
2018-09-05T07:32:59.457Z,21.20
2018-09-05T07:33:59.426Z,20.60
2018-09-05T07:34:59.400Z,21.10
2018-09-05T07:35:59.379Z,21.50
2018-09-05T07:36:59.359Z,20.10
2018-09-05T07:37:59.320Z,19.80
2018-09-05T07:38:59.292Z,20.20
2018-09-05T07:39:59.267Z,19.70
2018-09-05T07:40:59.395Z,19.20
2018-09-05T07:41:59.222Z,18.70
2018-09-05T07:42:59.188Z,18.80
2018-09-05T07:43:59.160Z,19.00
2018-09-05T07:44:59.137Z,18.20
2018-09-05T07:45:59.107Z,18.40
2018-09-05T07:46:59.088Z,20.40
2018-09-05T07:47:59.054Z,19.30
2018-09-05T07:48:59.025Z,18.90
2018-09-05T07:49:59.007Z,18.60
2018-09-05T07:50:59.032Z,19.60
2018-09-05T07:51:58.956Z,19.40
2018-09-05T07:52:58.922Z,20.70
2018-09-05T07:53:58.896Z,18.40
2018-09-05T07:54:58.871Z,17.30
2018-09-05T07:55:58.843Z,18.80
2018-09-05T07:56:58.829Z,19.20
2018-09-05T07:57:58.792Z,17.80
2018-09-05T07:58:58.768Z,17.50
2018-09-05T07:59:58.738Z,17.60
2018-09-05T08:00:58.712Z,17.70
2018-09-05T08:01:58.702Z,17.40
2018-09-05T08:02:58.673Z,17.90
2018-09-05T08:03:58.634Z,19.00
2018-09-05T08:04:58.608Z,17.90
2018-09-05T08:05:58.581Z,19.20
2018-09-05T08:06:58.565Z,18.50
2018-09-05T08:07:58.531Z,17.90
2018-09-05T08:08:58.502Z,19.00
2018-09-05T08:09:58.475Z,18.20
2018-09-05T08:10:58.449Z,19.20
2018-09-05T08:11:58.435Z,19.50
2018-09-05T08:12:58.398Z,18.10
2018-09-05T08:13:58.370Z,17.80
2018-09-05T08:14:58.362Z,17.70
2018-09-05T08:15:58.323Z,17.20
2018-09-05T08:16:58.292Z,17.50
2018-09-05T08:17:58.325Z,17.00
2018-09-05T08:18:58.245Z,18.10
2018-09-05T08:19:58.215Z,17.30
2018-09-05T08:20:58.188Z,17.10
2018-09-05T08:21:58.163Z,15.70
2018-09-05T08:22:58.145Z,16.60
2018-09-05T08:23:58.112Z,16.20
2018-09-05T08:24:58.084Z,17.40
2018-09-05T08:25:58.060Z,16.20
2018-09-05T08:26:58.035Z,17.30
2018-09-05T08:27:58.020Z,17.40
2018-09-05T08:28:58.093Z,16.40
2018-09-05T08:29:57.977Z,15.60
2018-09-05T08:30:57.930Z,16.10
2018-09-05T08:31:57.904Z,16.10
2018-09-05T08:32:57.886Z,15.70
2018-09-05T08:33:57.852Z,17.50
2018-09-05T08:34:57.921Z,16.30
2018-09-05T08:35:58.111Z,16.00
2018-09-05T08:36:57.970Z,15.80
2018-09-05T08:37:57.912Z,15.50
2018-09-05T08:38:57.750Z,16.80
2018-09-05T08:39:57.700Z,19.00
2018-09-05T08:40:57.675Z,17.60
2018-09-05T08:41:57.817Z,16.90
2018-09-05T08:42:57.629Z,17.60
2018-09-05T08:43:57.766Z,17.50
2018-09-05T08:44:57.691Z,17.60
2018-09-05T08:45:57.651Z,18.70
2018-09-05T08:46:57.569Z,18.00
2018-09-05T08:47:57.566Z,18.10
2018-09-05T08:48:57.468Z,19.10
2018-09-05T08:49:57.530Z,17.70
2018-09-05T08:50:57.439Z,18.60
2018-09-05T08:51:57.392Z,18.90
2018-09-05T08:52:57.394Z,18.00
2018-09-05T08:53:57.340Z,17.30
2018-09-05T08:54:57.314Z,17.50
2018-09-05T08:55:57.290Z,18.20
2018-09-05T08:56:57.263Z,17.60
2018-09-05T08:57:57.245Z,18.50
2018-09-05T08:58:57.295Z,17.20
2018-09-05T08:59:57.188Z,17.80
2018-09-05T09:00:57.161Z,18.30
2018-09-05T09:01:57.136Z,17.60
2018-09-05T09:02:57.149Z,18.30
2018-09-05T09:03:57.085Z,18.00
2018-09-05T09:04:57.081Z,17.60
2018-09-05T09:05:57.035Z,18.30
2018-09-05T09:06:57.010Z,17.50
2018-09-05T09:07:56.993Z,17.80
2018-09-05T09:08:56.959Z,17.70
2018-09-05T09:09:56.935Z,16.80
2018-09-05T09:10:56.908Z,16.50
2018-09-05T09:11:56.883Z,17.00
2018-09-05T09:12:56.864Z,16.50
2018-09-05T09:13:56.832Z,16.40
2018-09-05T09:14:56.807Z,14.90
2018-09-05T09:15:56.782Z,15.90
2018-09-05T09:16:56.755Z,16.10
2018-09-05T09:17:56.739Z,15.20
2018-09-05T09:18:56.705Z,15.60
2018-09-05T09:19:56.680Z,16.60
2018-09-05T09:20:56.655Z,14.50
2018-09-05T09:21:56.631Z,14.60
2018-09-05T09:22:56.614Z,13.90
2018-09-05T09:23:56.582Z,15.20
2018-09-05T09:24:56.553Z,15.40
2018-09-05T09:25:56.531Z,15.10
2018-09-05T09:26:56.505Z,14.50
2018-09-05T09:27:56.488Z,14.70
2018-09-05T09:28:56.456Z,13.70
2018-09-05T09:29:56.430Z,13.60
2018-09-05T09:30:56.407Z,14.30
2018-09-05T09:31:56.380Z,13.80
2018-09-05T09:32:56.614Z,14.50
2018-09-05T09:33:56.335Z,13.40
2018-09-05T09:34:56.404Z,12.50
2018-09-05T09:35:56.280Z,11.60
2018-09-05T09:36:56.257Z,12.40
2018-09-05T09:37:56.236Z,13.60
2018-09-05T09:38:56.204Z,12.10
2018-09-05T09:39:56.182Z,11.10
2018-09-05T09:40:56.156Z,11.30
2018-09-05T09:41:56.208Z,11.30
2018-09-05T09:42:56.119Z,10.20
2018-09-05T09:43:56.079Z,11.70
2018-09-05T09:44:56.054Z,10.50
2018-09-05T09:45:56.030Z,10.20
2018-09-05T09:46:56.006Z,11.80
2018-09-05T09:47:55.981Z,11.40
2018-09-05T09:48:55.967Z,10.60
2018-09-05T09:49:55.933Z,11.00
2018-09-05T09:50:55.906Z,11.00
2018-09-05T09:51:55.883Z,12.20
2018-09-05T09:52:55.861Z,11.30
2018-09-05T09:53:55.842Z,11.10
2018-09-05T09:54:55.809Z,11.40
2018-09-05T09:55:55.783Z,11.70
2018-09-05T09:56:55.758Z,10.40
2018-09-05T09:57:55.734Z,11.50
2018-09-05T09:58:55.720Z,11.50
2018-09-05T09:59:55.686Z,11.70
2018-09-05T10:00:55.659Z,10.30
2018-09-05T10:01:55.634Z,11.10
2018-09-05T10:02:55.610Z,10.20
2018-09-05T10:03:55.638Z,9.90
2018-09-05T10:04:55.563Z,10.00
2018-09-05T10:05:55.536Z,9.60
2018-09-05T10:06:55.525Z,9.00
2018-09-05T10:07:55.487Z,9.70
2018-09-05T10:08:55.470Z,9.40
2018-09-05T10:09:55.659Z,8.70
2018-09-05T10:10:55.413Z,9.20
2018-09-05T10:11:55.390Z,9.10
2018-09-05T10:12:55.365Z,9.40
2018-09-05T10:13:55.349Z,10.00
2018-09-05T10:14:55.352Z,8.50
2018-09-05T10:15:55.293Z,8.70
2018-09-05T10:16:55.293Z,9.80
2018-09-05T10:17:55.243Z,9.70
2018-09-05T10:18:55.228Z,9.80
2018-09-05T10:19:55.196Z,9.80
2018-09-05T10:20:55.186Z,10.00
2018-09-05T10:21:55.147Z,8.30
2018-09-05T10:22:55.123Z,8.20
2018-09-05T10:23:55.109Z,9.60
2018-09-05T10:24:55.074Z,9.10
2018-09-05T10:25:55.050Z,8.40
2018-09-05T10:26:55.025Z,9.00
2018-09-05T10:27:55.002Z,9.50
2018-09-05T10:28:54.987Z,9.00
2018-09-05T10:29:54.954Z,8.80
2018-09-05T10:30:54.930Z,9.10
2018-09-05T10:31:54.905Z,9.00
2018-09-05T10:32:54.882Z,9.50
2018-09-05T10:33:54.866Z,8.90
2018-09-05T10:34:54.833Z,8.80
2018-09-05T10:35:54.810Z,8.30
2018-09-05T10:36:54.784Z,8.40
2018-09-05T10:37:54.761Z,8.50
2018-09-05T10:38:54.749Z,8.30
2018-09-05T10:39:54.714Z,9.10
2018-09-05T10:40:54.686Z,8.40
2018-09-05T10:41:54.664Z,8.50
2018-09-05T10:42:54.640Z,9.10
2018-09-05T10:43:54.640Z,8.80
2018-09-05T10:44:54.593Z,8.60
2018-09-05T10:45:54.572Z,7.50
2018-09-05T10:46:54.546Z,8.60
2018-09-05T10:47:54.526Z,8.30
2018-09-05T10:48:54.497Z,8.30
2018-09-05T10:49:54.484Z,8.30
2018-09-05T10:50:54.457Z,8.20
2018-09-05T10:51:54.435Z,7.90
2018-09-05T10:52:54.407Z,7.90
2018-09-05T10:53:54.378Z,8.70
2018-09-05T10:54:54.365Z,8.00
2018-09-05T10:55:54.330Z,8.10
2018-09-05T10:56:54.305Z,8.50
2018-09-05T10:57:54.282Z,9.20
2018-09-05T10:58:54.261Z,8.70
2018-09-05T10:59:54.254Z,8.10
2018-09-05T11:00:54.210Z,8.20
2018-09-05T11:01:54.187Z,8.10
2018-09-05T11:02:54.165Z,7.30
2018-09-05T11:03:54.141Z,7.00
2018-09-05T11:04:54.123Z,7.40
2018-09-05T11:05:54.091Z,8.20
2018-09-05T11:06:54.070Z,8.50
2018-09-05T11:07:54.045Z,8.60
2018-09-05T11:08:54.021Z,8.70
2018-09-05T11:09:54.007Z,8.50
2018-09-05T11:10:54.031Z,8.50
2018-09-05T11:11:53.950Z,8.20
2018-09-05T11:12:53.926Z,8.50
2018-09-05T11:13:53.901Z,8.80
2018-09-05T11:14:53.909Z,8.40
2018-09-05T11:15:53.857Z,8.90
2018-09-05T11:16:53.831Z,8.60
2018-09-05T11:17:53.808Z,8.10
2018-09-05T11:18:53.782Z,8.40
2018-09-05T11:19:53.769Z,8.60
2018-09-05T11:20:53.737Z,9.10
2018-09-05T11:21:53.717Z,8.70
2018-09-05T11:22:53.693Z,8.50
2018-09-05T11:23:53.668Z,8.30
2018-09-05T11:24:53.655Z,8.10
2018-09-05T11:25:53.620Z,8.10
2018-09-05T11:26:53.595Z,7.40
2018-09-05T11:27:53.574Z,7.20
2018-09-05T11:28:53.551Z,7.60
2018-09-05T11:29:53.533Z,7.00
2018-09-05T11:30:53.504Z,8.10
2018-09-05T11:31:53.481Z,7.70
2018-09-05T11:32:53.457Z,8.00
2018-09-05T11:33:53.433Z,7.20
2018-09-05T11:34:53.416Z,7.30
2018-09-05T11:35:53.385Z,7.40
2018-09-05T11:36:53.366Z,7.30
2018-09-05T11:37:53.338Z,7.30
2018-09-05T11:38:53.315Z,7.30
2018-09-05T11:39:53.302Z,7.50
2018-09-05T11:40:53.270Z,7.50
2018-09-05T11:41:53.247Z,6.60
2018-09-05T11:42:53.224Z,6.80
2018-09-05T11:43:53.201Z,6.60
2018-09-05T11:44:53.183Z,7.00
2018-09-05T11:45:53.153Z,6.90
2018-09-05T11:46:53.129Z,7.50
2018-09-05T11:47:53.107Z,7.70
2018-09-05T11:48:53.085Z,8.20
2018-09-05T11:49:53.066Z,7.90
2018-09-05T11:50:53.043Z,6.60
2018-09-05T11:51:53.028Z,7.40
2018-09-05T11:52:52.990Z,7.70
2018-09-05T11:53:52.964Z,7.40
2018-09-05T11:54:52.949Z,6.80
2018-09-05T11:55:52.957Z,7.70
2018-09-05T11:56:52.898Z,6.70
2018-09-05T11:57:52.874Z,6.80
2018-09-05T11:58:52.851Z,6.70
2018-09-05T11:59:52.831Z,7.70
2018-09-05T12:00:52.801Z,8.10
2018-09-05T12:01:52.794Z,7.30
2018-09-05T12:02:52.755Z,6.60
2018-09-05T12:03:52.731Z,7.00
2018-09-05T12:04:52.728Z,7.60
2018-09-05T12:05:52.685Z,7.20
2018-09-05T12:06:52.664Z,6.90
2018-09-05T12:07:52.641Z,6.80
2018-09-05T12:08:52.615Z,5.80
2018-09-05T12:09:52.608Z,6.60
2018-09-05T12:10:52.569Z,6.20
2018-09-05T12:11:52.551Z,6.10
2018-09-05T12:12:52.522Z,5.60
2018-09-05T12:13:52.500Z,6.10
2018-09-05T12:14:52.497Z,6.10
2018-09-05T12:15:52.453Z,6.20
2018-09-05T12:16:52.428Z,7.00
2018-09-05T12:17:52.404Z,6.00
2018-09-05T12:18:52.385Z,5.50
2018-09-05T12:19:52.360Z,5.60
2018-09-05T12:20:52.343Z,5.70
2018-09-05T12:21:52.316Z,6.40
2018-09-05T12:22:52.291Z,6.90
2018-09-05T12:23:52.269Z,5.80
2018-09-05T12:24:52.242Z,5.60
2018-09-05T12:25:52.229Z,6.20
2018-09-05T12:26:52.198Z,6.00
2018-09-05T12:27:52.178Z,5.40
2018-09-05T12:28:52.156Z,6.30
2018-09-05T12:29:52.129Z,6.40
2018-09-05T12:30:52.114Z,6.00
2018-09-05T12:31:52.083Z,6.10
2018-09-05T12:32:52.066Z,5.90
2018-09-05T12:33:52.038Z,5.70
2018-09-05T12:34:52.015Z,5.60
2018-09-05T12:35:52.002Z,5.30
2018-09-05T12:36:51.967Z,5.90
2018-09-05T12:37:51.948Z,6.10
2018-09-05T12:38:51.925Z,6.50
2018-09-05T12:39:51.902Z,5.90
2018-09-05T12:40:51.889Z,5.60
2018-09-05T12:41:51.852Z,5.80
2018-09-05T12:42:51.831Z,5.70
2018-09-05T12:43:51.808Z,6.40
2018-09-05T12:44:51.885Z,6.00
2018-09-05T12:45:51.772Z,5.90
2018-09-05T12:46:51.737Z,6.50
2018-09-05T12:47:51.717Z,6.10
2018-09-05T12:48:51.692Z,6.10
2018-09-05T12:49:51.670Z,6.40
2018-09-05T12:50:51.658Z,6.00
2018-09-05T12:51:51.628Z,5.70
2018-09-05T12:52:51.601Z,6.20
2018-09-05T12:53:51.581Z,6.60
2018-09-05T12:54:51.557Z,5.70
2018-09-05T12:55:51.542Z,5.60
2018-09-05T12:56:51.509Z,6.00
2018-09-05T12:57:51.486Z,6.70